createdAt,value
2018-12-09T00:00:17.764Z,95.79
2018-12-09T00:01:17.764Z,96.27
2018-12-09T00:02:17.782Z,96.27
2018-12-09T00:03:17.811Z,95.89
2018-12-09T00:04:17.832Z,95.89
2018-12-09T00:05:17.936Z,95.79
2018-12-09T00:06:17.850Z,96.56
2018-12-09T00:07:17.964Z,96.36
2018-12-09T00:08:17.886Z,97.13
2018-12-09T00:09:17.888Z,96.94
2018-12-09T00:10:17.906Z,97.41
2018-12-09T00:11:17.968Z,96.65
2018-12-09T00:12:17.944Z,96.94
2018-12-09T00:13:17.960Z,97.03
2018-12-09T00:14:17.987Z,96.41
2018-12-09T00:15:17.989Z,96.08
2018-12-09T00:16:17.995Z,96.36
2018-12-09T00:17:18.011Z,96.36
2018-12-09T00:18:18.035Z,96.56
2018-12-09T00:19:18.066Z,96.36
2018-12-09T00:20:18.067Z,96.17
2018-12-09T00:21:18.097Z,95.79
2018-12-09T00:22:18.127Z,95.12
2018-12-09T00:23:18.107Z,95.70
2018-12-09T00:25:18.146Z,95.22
2018-12-09T00:26:18.159Z,95.37
2018-12-09T00:27:18.187Z,95.27
2018-12-09T00:28:18.188Z,93.93
2018-12-09T00:29:18.206Z,94.98
2018-12-09T00:30:18.230Z,94.84
2018-12-09T00:31:18.242Z,95.79
2018-12-09T00:32:18.251Z,95.22
2018-12-09T00:33:18.270Z,94.51
2018-12-09T00:34:18.284Z,94.41
2018-12-09T00:35:18.325Z,94.65
2018-12-09T00:36:18.318Z,95.79
2018-12-09T00:37:18.327Z,94.60
2018-12-09T00:38:18.353Z,92.98
2018-12-09T00:39:18.359Z,93.60
2018-12-09T00:40:18.379Z,94.17
2018-12-09T00:41:18.397Z,94.84
2018-12-09T00:42:18.410Z,95.22
2018-12-09T00:43:18.437Z,94.46
2018-12-09T00:44:18.441Z,94.37
2018-12-09T00:45:18.463Z,94.56
2018-12-09T00:46:18.475Z,94.46
2018-12-09T00:47:18.492Z,93.70
2018-12-09T00:48:18.502Z,93.84
2018-12-09T00:50:18.556Z,93.51
2018-12-09T00:51:18.563Z,94.37
2018-12-09T00:52:18.666Z,93.88
2018-12-09T00:53:18.606Z,94.08
2018-12-09T00:54:18.611Z,93.55
2018-12-09T00:55:18.624Z,93.55
2018-12-09T00:56:18.642Z,93.36
2018-12-09T00:57:18.650Z,93.74
2018-12-09T00:58:18.672Z,93.08
2018-12-09T00:59:18.698Z,93.55
2018-12-09T01:00:18.721Z,92.98
2018-12-09T01:01:18.720Z,93.08
2018-12-09T01:02:18.741Z,92.98
2018-12-09T01:04:18.764Z,93.51
2018-12-09T01:05:18.784Z,93.74
2018-12-09T01:06:18.801Z,93.08
2018-12-09T01:07:18.811Z,93.27
2018-12-09T01:08:18.828Z,93.08
2018-12-09T01:09:18.855Z,93.55
2018-12-09T01:10:18.860Z,93.55
2018-12-09T01:11:18.900Z,93.74
2018-12-09T01:12:18.890Z,92.69
2018-12-09T01:13:18.906Z,92.69
2018-12-09T01:14:18.925Z,93.55
2018-12-09T01:15:18.945Z,93.51
2018-12-09T01:16:18.956Z,93.17
2018-12-09T01:17:18.983Z,92.22
2018-12-09T01:18:18.993Z,91.93
2018-12-09T01:19:19.011Z,91.74
2018-12-09T01:21:19.069Z,91.36
2018-12-09T01:22:19.055Z,91.17
2018-12-09T01:23:19.066Z,90.79
2018-12-09T01:24:19.087Z,90.98
2018-12-09T01:25:19.100Z,91.17
2018-12-09T01:26:19.147Z,89.93
2018-12-09T01:27:19.134Z,90.12
2018-12-09T01:28:19.150Z,89.74
2018-12-09T01:29:19.165Z,89.83
2018-12-09T01:30:19.182Z,89.54
2018-12-09T01:31:19.193Z,89.93
2018-12-09T01:32:19.213Z,89.93
2018-12-09T01:33:19.246Z,89.26
2018-12-09T01:34:19.263Z,89.07
2018-12-09T01:35:19.314Z,89.07
2018-12-09T01:36:19.308Z,89.07
2018-12-09T01:37:19.314Z,88.98
2018-12-09T01:38:19.326Z,88.98
2018-12-09T01:39:19.337Z,88.98
2018-12-09T01:40:19.344Z,89.07
2018-12-09T01:41:19.363Z,88.69
2018-12-09T01:42:19.382Z,88.12
2018-12-09T01:43:19.395Z,87.74
2018-12-09T01:44:19.409Z,87.83
2018-12-09T01:45:19.430Z,87.35
2018-12-09T01:46:19.442Z,87.83
2018-12-09T01:47:19.459Z,87.26
2018-12-09T01:48:19.539Z,87.07
2018-12-09T01:49:19.490Z,86.88
2018-12-09T01:50:19.513Z,86.49
2018-12-09T01:51:19.525Z,85.54
2018-12-09T01:52:19.542Z,85.64
2018-12-09T01:53:19.555Z,85.45
2018-12-09T01:54:19.565Z,85.45
2018-12-09T01:55:19.590Z,84.69
2018-12-09T01:56:19.599Z,83.92
2018-12-09T01:57:19.622Z,84.88
2018-12-09T01:58:19.654Z,84.78
2018-12-09T01:59:19.657Z,84.20
2018-12-09T02:00:19.694Z,83.83
2018-12-09T02:01:19.747Z,83.35
2018-12-09T02:03:19.715Z,84.01
2018-12-09T02:04:19.734Z,84.01
2018-12-09T02:05:19.767Z,83.83
2018-12-09T02:06:19.765Z,83.54
2018-12-09T02:07:19.781Z,83.44
2018-12-09T02:08:19.806Z,82.97
2018-12-09T02:10:19.832Z,83.25
2018-12-09T02:11:19.846Z,83.16
2018-12-09T02:12:19.876Z,83.25
2018-12-09T02:13:19.881Z,82.30
2018-12-09T02:14:19.900Z,82.49
2018-12-09T02:15:19.913Z,82.68
2018-12-09T02:16:19.931Z,83.06
2018-12-09T02:17:19.946Z,83.64
2018-12-09T02:18:19.964Z,83.64
2018-12-09T02:19:19.974Z,83.64
2018-12-09T02:21:20.013Z,83.83
2018-12-09T02:22:20.025Z,83.92
2018-12-09T02:24:20.067Z,84.30
2018-12-09T02:25:20.078Z,83.92
2018-12-09T02:26:20.089Z,84.97
2018-12-09T02:27:20.117Z,85.45
2018-12-09T02:28:20.128Z,85.93
2018-12-09T02:29:20.168Z,87.26
2018-12-09T02:30:20.171Z,89.64
2018-12-09T02:31:20.183Z,90.45
2018-12-09T02:32:20.188Z,91.03
2018-12-09T02:33:20.207Z,92.36
2018-12-09T02:34:20.219Z,92.36
2018-12-09T02:35:20.243Z,90.74
2018-12-09T02:36:20.257Z,91.03
2018-12-09T02:37:20.271Z,91.50
2018-12-09T02:38:20.306Z,89.69
2018-12-09T02:39:20.317Z,89.69
2018-12-09T02:40:20.314Z,90.08
2018-12-09T02:41:20.337Z,91.31
2018-12-09T02:42:20.349Z,90.84
2018-12-09T02:43:20.374Z,90.74
2018-12-09T02:44:20.383Z,91.31
2018-12-09T02:45:20.403Z,90.64
2018-12-09T02:47:20.445Z,90.55
2018-12-09T02:48:20.447Z,90.36
2018-12-09T02:49:20.468Z,89.79
2018-12-09T02:50:20.493Z,90.26
2018-12-09T02:51:20.496Z,89.98
2018-12-09T02:52:20.511Z,89.98
2018-12-09T02:53:20.531Z,89.89
2018-12-09T02:54:20.566Z,90.26
2018-12-09T02:55:20.563Z,91.13
2018-12-09T02:56:20.579Z,90.08
2018-12-09T02:57:20.597Z,90.17
2018-12-09T02:59:20.630Z,90.26
2018-12-09T03:00:20.693Z,89.79
2018-12-09T03:01:20.685Z,89.98
2018-12-09T03:02:20.689Z,89.79
2018-12-09T03:03:20.687Z,90.36
2018-12-09T03:05:20.721Z,91.22
2018-12-09T03:06:20.733Z,90.93
2018-12-09T03:07:20.757Z,90.64
2018-12-09T03:08:20.772Z,90.26
2018-12-09T03:09:20.784Z,90.55
2018-12-09T03:10:20.795Z,90.26
2018-12-09T03:11:20.811Z,90.17
2018-12-09T03:12:20.843Z,89.74
2018-12-09T03:13:20.857Z,89.22
2018-12-09T03:14:20.943Z,88.93
2018-12-09T03:15:20.875Z,89.60
2018-12-09T03:16:20.893Z,90.08
2018-12-09T03:17:20.911Z,89.98
2018-12-09T03:18:20.942Z,88.88
2018-12-09T03:19:20.949Z,88.07
2018-12-09T03:20:20.970Z,88.45
2018-12-09T03:21:20.978Z,88.36
2018-12-09T03:22:20.992Z,87.31
2018-12-09T03:23:21.018Z,87.98
2018-12-09T03:24:21.027Z,88.93
2018-12-09T03:25:21.057Z,88.84
2018-12-09T03:26:21.085Z,89.22
2018-12-09T03:27:21.075Z,88.55
2018-12-09T03:28:21.096Z,87.88
2018-12-09T03:29:21.096Z,87.12
2018-12-09T03:30:21.122Z,86.07
2018-12-09T03:31:21.165Z,86.16
2018-12-09T03:32:21.157Z,86.07
2018-12-09T03:33:21.167Z,86.74
2018-12-09T03:34:21.182Z,86.83
2018-12-09T03:35:21.192Z,87.31
2018-12-09T03:36:21.210Z,86.83
2018-12-09T03:37:21.272Z,86.83
2018-12-09T03:38:21.262Z,86.65
2018-12-09T03:39:21.272Z,86.36
2018-12-09T03:40:21.299Z,86.07
2018-12-09T03:41:21.291Z,85.60
2018-12-09T03:42:21.383Z,86.26
2018-12-09T03:43:21.327Z,86.74
2018-12-09T03:44:21.345Z,86.16
2018-12-09T03:45:21.358Z,86.07
2018-12-09T03:46:21.380Z,85.88
2018-12-09T03:47:21.390Z,86.26
2018-12-09T03:48:21.406Z,85.78
2018-12-09T03:49:21.423Z,85.69
2018-12-09T03:50:21.446Z,86.07
2018-12-09T03:51:21.458Z,85.97
2018-12-09T03:52:21.469Z,86.07
2018-12-09T03:53:21.545Z,85.21
2018-12-09T03:55:21.538Z,85.50
2018-12-09T03:56:21.535Z,85.69
2018-12-09T03:57:21.551Z,86.26
2018-12-09T03:58:21.566Z,85.69
2018-12-09T03:59:21.604Z,85.21
2018-12-09T04:00:21.613Z,85.41
2018-12-09T04:01:21.624Z,85.60
2018-12-09T04:02:21.639Z,84.74
2018-12-09T04:03:21.658Z,85.31
2018-12-09T04:04:21.668Z,85.12
2018-12-09T04:05:21.681Z,85.31
2018-12-09T04:06:21.697Z,86.07
2018-12-09T04:07:21.717Z,85.31
2018-12-09T04:08:21.733Z,85.41
2018-12-09T04:09:21.742Z,85.69
2018-12-09T04:11:21.771Z,86.16
2018-12-09T04:12:21.790Z,86.55
2018-12-09T04:13:21.835Z,85.88
2018-12-09T04:14:21.958Z,86.16
2018-12-09T04:15:21.843Z,86.36
2018-12-09T04:16:21.866Z,86.36
2018-12-09T04:17:21.871Z,86.45
2018-12-09T04:18:21.890Z,86.26
2018-12-09T04:19:21.905Z,86.26
2018-12-09T04:20:21.927Z,86.36
2018-12-09T04:22:21.961Z,86.16
2018-12-09T04:23:22.042Z,86.83
2018-12-09T04:24:21.995Z,85.78
2018-12-09T04:25:22.005Z,85.54
2018-12-09T04:26:22.020Z,85.25
2018-12-09T04:27:22.072Z,85.31
2018-12-09T04:28:22.050Z,85.50
2018-12-09T04:29:22.066Z,86.07
2018-12-09T04:30:22.081Z,86.36
2018-12-09T04:31:22.100Z,85.88
2018-12-09T04:32:22.117Z,85.60
2018-12-09T04:33:22.129Z,84.83
2018-12-09T04:34:22.146Z,85.50
2018-12-09T04:35:22.160Z,85.78
2018-12-09T04:36:22.178Z,85.88
2018-12-09T04:37:22.191Z,86.26
2018-12-09T04:38:22.265Z,85.97
2018-12-09T04:39:22.226Z,85.78
2018-12-09T04:40:22.331Z,85.97
2018-12-09T04:41:22.280Z,85.97
2018-12-09T04:42:22.273Z,85.97
2018-12-09T04:43:22.288Z,85.69
2018-12-09T04:44:22.382Z,85.50
2018-12-09T04:45:24.318Z,85.97
2018-12-09T04:46:22.330Z,85.97
2018-12-09T04:47:22.353Z,85.78
2018-12-09T04:49:22.381Z,86.36
2018-12-09T04:51:22.528Z,86.93
2018-12-09T04:52:22.431Z,85.97
2018-12-09T04:53:22.445Z,85.69
2018-12-09T04:54:22.461Z,85.50
2018-12-09T04:55:22.482Z,85.88
2018-12-09T04:56:22.504Z,85.50
2018-12-09T04:57:22.509Z,85.88
2018-12-09T04:58:22.530Z,86.07
2018-12-09T04:59:22.553Z,85.97
2018-12-09T05:00:22.559Z,84.69
2018-12-09T05:01:22.584Z,84.36
2018-12-09T05:02:22.610Z,84.64
2018-12-09T05:03:22.615Z,84.83
2018-12-09T05:04:22.631Z,84.55
2018-12-09T05:05:22.659Z,83.78
2018-12-09T05:06:22.658Z,83.69
2018-12-09T05:08:22.762Z,82.73
2018-12-09T05:09:22.729Z,83.12
2018-12-09T05:10:22.762Z,81.25
2018-12-09T05:12:22.756Z,81.97
2018-12-09T05:13:22.764Z,81.73
2018-12-09T05:14:22.794Z,81.40
2018-12-09T05:15:22.797Z,81.68
2018-12-09T05:16:22.815Z,81.02
2018-12-09T05:17:22.839Z,80.83
2018-12-09T05:18:22.849Z,81.02
2018-12-09T05:19:22.862Z,81.88
2018-12-09T05:20:22.888Z,82.07
2018-12-09T05:21:22.911Z,81.30
2018-12-09T05:22:22.915Z,80.64
2018-12-09T05:23:22.931Z,81.21
2018-12-09T05:24:22.940Z,80.83
2018-12-09T05:25:22.980Z,80.64
2018-12-09T05:26:22.975Z,80.92
2018-12-09T05:27:22.994Z,80.83
2018-12-09T05:28:23.027Z,80.92
2018-12-09T05:30:23.058Z,80.07
2018-12-09T05:31:23.057Z,80.44
2018-12-09T05:32:23.071Z,81.02
2018-12-09T05:33:23.089Z,81.21
2018-12-09T05:34:23.113Z,81.02
2018-12-09T05:35:23.136Z,80.92
2018-12-09T05:36:23.251Z,81.88
2018-12-09T05:37:23.163Z,81.12
2018-12-09T05:38:23.177Z,81.49
2018-12-09T05:39:23.188Z,81.02
2018-12-09T05:40:23.200Z,81.59
2018-12-09T05:41:23.221Z,80.54
2018-12-09T05:42:23.232Z,80.83
2018-12-09T05:43:23.256Z,81.40
2018-12-09T05:44:23.260Z,81.49
2018-12-09T05:45:23.284Z,81.30
2018-12-09T05:46:23.300Z,81.12
2018-12-09T05:47:23.322Z,80.92
2018-12-09T05:48:23.350Z,80.54
2018-12-09T05:49:23.378Z,81.40
2018-12-09T05:50:23.366Z,81.12
2018-12-09T05:51:23.399Z,81.02
2018-12-09T05:52:23.394Z,81.30
2018-12-09T05:53:23.452Z,80.92
2018-12-09T05:54:23.423Z,80.44
2018-12-09T05:55:23.443Z,80.54
2018-12-09T05:56:23.455Z,80.35
2018-12-09T05:57:23.465Z,81.12
2018-12-09T05:58:23.492Z,81.59
2018-12-09T05:59:23.500Z,80.83
2018-12-09T06:00:23.522Z,80.16
2018-12-09T06:01:23.538Z,80.35
2018-12-09T06:02:23.554Z,80.73
2018-12-09T06:03:23.567Z,80.64
2018-12-09T06:04:23.687Z,80.92
2018-12-09T06:05:23.593Z,80.44
2018-12-09T06:06:23.614Z,80.26
2018-12-09T06:07:23.635Z,80.73
2018-12-09T06:08:23.644Z,80.92
2018-12-09T06:09:23.673Z,80.54
2018-12-09T06:10:23.673Z,80.64
2018-12-09T06:11:23.697Z,80.64
2018-12-09T06:12:23.803Z,80.54
2018-12-09T06:13:23.738Z,81.02
2018-12-09T06:14:23.749Z,80.44
2018-12-09T06:15:23.767Z,80.83
2018-12-09T06:16:23.788Z,81.02
2018-12-09T06:17:23.878Z,81.02
2018-12-09T06:18:23.807Z,80.44
2018-12-09T06:19:23.820Z,80.54
2018-12-09T06:20:23.841Z,81.40
2018-12-09T06:21:23.878Z,81.49
2018-12-09T06:22:23.877Z,80.83
2018-12-09T06:23:23.885Z,81.30
2018-12-09T06:24:23.904Z,81.02
2018-12-09T06:25:23.949Z,81.12
2018-12-09T06:26:23.934Z,81.40
2018-12-09T06:27:23.946Z,81.40
2018-12-09T06:28:23.964Z,81.49
2018-12-09T06:29:24.002Z,81.59
2018-12-09T06:30:24.001Z,81.59
2018-12-09T06:31:24.010Z,81.12
2018-12-09T06:32:24.109Z,80.39
2018-12-09T06:33:24.050Z,80.64
2018-12-09T06:34:24.070Z,80.83
2018-12-09T06:35:24.086Z,80.83
2018-12-09T06:36:24.103Z,81.21
2018-12-09T06:37:24.106Z,80.92
2018-12-09T06:38:24.131Z,80.92
2018-12-09T06:39:24.143Z,81.02
2018-12-09T06:40:24.166Z,80.92
2018-12-09T06:41:24.172Z,81.12
2018-12-09T06:42:24.200Z,80.88
2018-12-09T06:43:26.210Z,81.02
2018-12-09T06:44:24.220Z,81.49
2018-12-09T06:45:24.240Z,81.02
2018-12-09T06:46:24.251Z,80.92
2018-12-09T06:47:24.268Z,81.02
2018-12-09T06:48:24.285Z,81.02
2018-12-09T06:49:24.309Z,81.02
2018-12-09T06:50:24.312Z,81.02
2018-12-09T06:51:24.335Z,81.02
2018-12-09T06:52:24.346Z,81.40
2018-12-09T06:53:24.359Z,81.59
2018-12-09T06:54:24.377Z,82.26
2018-12-09T06:55:24.425Z,82.17
2018-12-09T06:56:24.411Z,82.35
2018-12-09T06:57:24.424Z,81.74
2018-12-09T06:58:24.456Z,82.12
2018-12-09T06:59:24.475Z,81.30
2018-12-09T07:00:24.553Z,81.78
2018-12-09T07:01:24.492Z,81.93
2018-12-09T07:02:24.600Z,81.55
2018-12-09T07:03:24.524Z,81.88
2018-12-09T07:04:24.538Z,81.49
2018-12-09T07:05:24.551Z,81.49
2018-12-09T07:06:24.584Z,81.12
2018-12-09T07:07:24.591Z,80.73
2018-12-09T07:08:24.605Z,80.73
2018-12-09T07:09:24.621Z,80.16
2018-12-09T07:10:24.631Z,80.44
2018-12-09T07:11:24.645Z,80.35
2018-12-09T07:12:24.664Z,81.07
2018-12-09T07:13:24.689Z,80.83
2018-12-09T07:14:24.696Z,80.44
2018-12-09T07:15:24.707Z,79.97
2018-12-09T07:16:24.729Z,80.73
2018-12-09T07:17:24.794Z,80.26
2018-12-09T07:18:24.759Z,80.41
2018-12-09T07:19:24.815Z,80.88
2018-12-09T07:20:24.787Z,80.83
2018-12-09T07:21:24.808Z,80.64
2018-12-09T07:22:24.820Z,80.35
2018-12-09T07:23:24.857Z,80.79
2018-12-09T07:24:24.854Z,80.92
2018-12-09T07:25:24.882Z,80.44
2018-12-09T07:26:24.890Z,81.49
2018-12-09T07:27:24.899Z,80.44
2018-12-09T07:28:24.927Z,81.21
2018-12-09T07:29:24.935Z,81.49
2018-12-09T07:30:25.102Z,81.59
2018-12-09T07:31:24.965Z,81.07
2018-12-09T07:32:25.052Z,81.02
2018-12-09T07:33:25.003Z,81.30
2018-12-09T07:34:25.013Z,80.92
2018-12-09T07:35:25.037Z,81.02
2018-12-09T07:36:25.070Z,80.83
2018-12-09T07:37:25.062Z,81.46
2018-12-09T07:38:25.082Z,81.26
2018-12-09T07:39:25.090Z,81.46
2018-12-09T07:40:25.111Z,81.12
2018-12-09T07:41:25.130Z,81.40
2018-12-09T07:42:25.147Z,81.12
2018-12-09T07:43:25.211Z,80.35
2018-12-09T07:44:25.188Z,80.35
2018-12-09T07:45:25.189Z,81.21
2018-12-09T07:46:25.208Z,80.88
2018-12-09T07:47:25.273Z,81.07
2018-12-09T07:48:25.260Z,81.12
2018-12-09T07:49:25.260Z,80.73
2018-12-09T07:50:25.288Z,80.83
2018-12-09T07:51:25.285Z,81.02
2018-12-09T07:52:25.294Z,79.63
2018-12-09T07:53:25.318Z,79.40
2018-12-09T07:54:25.340Z,80.07
2018-12-09T07:55:25.356Z,79.68
2018-12-09T07:56:25.364Z,80.60
2018-12-09T07:57:25.383Z,81.40
2018-12-09T07:58:25.433Z,81.40
2018-12-09T07:59:25.403Z,81.21
2018-12-09T08:00:25.526Z,81.12
2018-12-09T08:01:25.446Z,79.68
2018-12-09T08:02:25.462Z,79.49
2018-12-09T08:03:25.488Z,79.49
2018-12-09T08:04:25.487Z,79.97
2018-12-09T08:05:25.501Z,79.63
2018-12-09T08:06:25.515Z,78.49
2018-12-09T08:07:25.550Z,78.73
2018-12-09T08:08:25.556Z,79.02
2018-12-09T08:09:25.600Z,78.83
2018-12-09T08:10:25.592Z,79.21
2018-12-09T08:11:25.598Z,79.02
2018-12-09T08:12:25.616Z,78.06
2018-12-09T08:13:25.637Z,78.16
2018-12-09T08:14:25.651Z,78.92
2018-12-09T08:15:25.722Z,79.49
2018-12-09T08:16:25.681Z,79.30
2018-12-09T08:17:25.698Z,79.59
2018-12-09T08:18:25.709Z,78.83
2018-12-09T08:19:25.722Z,79.49
2018-12-09T08:20:25.762Z,80.26
2018-12-09T08:21:25.768Z,80.16
2018-12-09T08:23:25.794Z,79.59
2018-12-09T08:24:25.810Z,79.21
2018-12-09T08:25:25.825Z,79.40
2018-12-09T08:26:25.841Z,79.49
2018-12-09T08:27:25.859Z,79.40
2018-12-09T08:28:25.866Z,79.49
2018-12-09T08:29:46.908Z,79.68
2018-12-09T08:30:25.902Z,79.88
2018-12-09T08:31:46.932Z,79.68
2018-12-09T08:32:25.935Z,78.83
2018-12-09T08:33:25.955Z,79.59
2018-12-09T08:34:26.061Z,79.68
2018-12-09T08:35:25.980Z,79.88
2018-12-09T08:36:25.995Z,80.07
2018-12-09T08:37:26.010Z,80.26
2018-12-09T08:38:26.027Z,79.68
2018-12-09T08:39:26.057Z,79.02
2018-12-09T08:41:26.074Z,79.88
2018-12-09T08:42:26.084Z,80.16
2018-12-09T08:43:26.158Z,79.49
2018-12-09T08:44:26.128Z,79.68
2018-12-09T08:45:26.141Z,80.16
2018-12-09T08:46:26.165Z,79.88
2018-12-09T08:47:26.202Z,79.78
2018-12-09T08:48:26.184Z,80.35
2018-12-09T08:49:26.202Z,80.73
2018-12-09T08:50:26.256Z,81.49
2018-12-09T08:51:26.264Z,80.83
2018-12-09T08:52:26.256Z,81.59
2018-12-09T08:53:26.267Z,81.02
2018-12-09T08:54:26.329Z,81.12
2018-12-09T08:55:26.325Z,80.92
2018-12-09T08:56:26.493Z,80.54
2018-12-09T08:57:26.353Z,80.92
2018-12-09T08:58:26.348Z,81.40
2018-12-09T08:59:26.363Z,81.40
2018-12-09T09:00:26.403Z,81.02
2018-12-09T09:01:26.394Z,80.83
2018-12-09T09:02:26.409Z,80.83
2018-12-09T09:03:26.430Z,80.64
2018-12-09T09:04:26.453Z,81.02
2018-12-09T09:05:26.461Z,81.40
2018-12-09T09:06:26.471Z,81.40
2018-12-09T09:07:26.499Z,80.44
2018-12-09T09:08:26.502Z,79.49
2018-12-09T09:09:26.525Z,81.12
2018-12-09T09:10:26.552Z,81.49
2018-12-09T09:11:26.594Z,81.68
2018-12-09T09:12:26.576Z,81.21
2018-12-09T09:13:26.589Z,81.59
2018-12-09T09:14:26.599Z,81.78
2018-12-09T09:15:26.637Z,81.88
2018-12-09T09:16:26.632Z,82.17
2018-12-09T09:17:26.650Z,82.83
2018-12-09T09:18:26.661Z,83.02
2018-12-09T09:19:26.679Z,82.54
2018-12-09T09:20:26.697Z,82.73
2018-12-09T09:21:26.714Z,83.12
2018-12-09T09:22:26.735Z,83.02
2018-12-09T09:23:26.741Z,82.64
2018-12-09T09:24:26.908Z,82.35
2018-12-09T09:25:26.784Z,82.54
2018-12-09T09:26:26.805Z,82.92
2018-12-09T09:27:26.810Z,82.83
2018-12-09T09:28:26.823Z,83.02
2018-12-09T09:29:26.847Z,83.50
2018-12-09T09:30:26.929Z,83.02
2018-12-09T09:31:26.883Z,83.59
2018-12-09T09:32:26.892Z,82.54
2018-12-09T09:33:26.911Z,82.26
2018-12-09T09:34:26.919Z,82.83
2018-12-09T09:35:26.940Z,83.02
2018-12-09T09:36:26.948Z,82.83
2018-12-09T09:37:26.972Z,82.26
2018-12-09T09:38:26.987Z,82.17
2018-12-09T09:39:27.058Z,82.17
2018-12-09T09:40:27.011Z,82.07
2018-12-09T09:41:27.075Z,81.88
2018-12-09T09:42:27.094Z,82.26
2018-12-09T09:43:27.069Z,82.54
2018-12-09T09:44:27.083Z,83.02
2018-12-09T09:45:27.099Z,82.64
2018-12-09T09:46:27.109Z,82.07
2018-12-09T09:47:27.131Z,81.49
2018-12-09T09:48:27.150Z,81.59
2018-12-09T09:49:27.167Z,81.88
2018-12-09T09:50:27.184Z,81.78
2018-12-09T09:51:27.207Z,81.49
2018-12-09T09:52:27.212Z,81.59
2018-12-09T09:53:27.221Z,82.07
2018-12-09T09:54:27.242Z,82.64
2018-12-09T09:55:27.266Z,82.73
2018-12-09T09:56:27.269Z,83.21
2018-12-09T09:57:27.285Z,83.12
2018-12-09T09:58:27.301Z,83.31
2018-12-09T09:59:27.328Z,83.69
2018-12-09T10:00:27.333Z,82.83
2018-12-09T10:01:27.358Z,83.12
2018-12-09T10:02:27.379Z,82.73
2018-12-09T10:03:27.385Z,83.69
2018-12-09T10:04:27.396Z,83.59
2018-12-09T10:05:27.426Z,83.78
2018-12-09T10:06:27.425Z,84.16
2018-12-09T10:07:27.443Z,84.16
2018-12-09T10:08:27.466Z,84.36
2018-12-09T10:09:27.591Z,85.21
2018-12-09T10:10:27.491Z,85.31
2018-12-09T10:11:27.524Z,85.12
2018-12-09T10:12:27.587Z,84.92
2018-12-09T10:13:27.540Z,84.92
2018-12-09T10:14:27.557Z,85.12
2018-12-09T10:15:27.574Z,85.02
2018-12-09T10:16:27.585Z,84.92
2018-12-09T10:17:27.655Z,85.02
2018-12-09T10:18:27.643Z,84.45
2018-12-09T10:19:27.638Z,85.21
2018-12-09T10:20:27.651Z,84.79
2018-12-09T10:21:27.674Z,84.64
2018-12-09T10:22:27.706Z,83.31
2018-12-09T10:23:27.721Z,83.78
2018-12-09T10:24:27.721Z,83.88
2018-12-09T10:25:27.747Z,84.36
2018-12-09T10:26:27.742Z,85.02
2018-12-09T10:27:27.778Z,84.36
2018-12-09T10:28:27.803Z,84.26
2018-12-09T10:29:27.799Z,84.07
2018-12-09T10:30:27.806Z,83.97
2018-12-09T10:31:27.827Z,84.64
2018-12-09T10:32:27.849Z,84.26
2018-12-09T10:33:27.858Z,83.50
2018-12-09T10:34:27.874Z,83.88
2018-12-09T10:35:27.892Z,84.26
2018-12-09T10:36:27.911Z,84.26
2018-12-09T10:37:27.985Z,83.69
2018-12-09T10:39:27.957Z,84.07
2018-12-09T10:40:27.967Z,84.16
2018-12-09T10:41:28.033Z,83.78
2018-12-09T10:42:27.998Z,83.97
2018-12-09T10:43:28.040Z,83.78
2018-12-09T10:44:28.037Z,83.31
2018-12-09T10:45:28.057Z,83.50
2018-12-09T10:46:28.074Z,83.88
2018-12-09T10:47:28.080Z,83.31
2018-12-09T10:48:28.108Z,83.02
2018-12-09T10:49:28.111Z,82.83
2018-12-09T10:50:28.140Z,83.78
2018-12-09T10:51:28.156Z,84.45
2018-12-09T10:52:28.162Z,84.83
2018-12-09T10:53:28.181Z,84.07
2018-12-09T10:54:28.242Z,83.88
2018-12-09T10:55:28.210Z,83.50
2018-12-09T10:56:28.219Z,84.16
2018-12-09T10:57:28.255Z,84.16
2018-12-09T10:58:28.280Z,83.50
2018-12-09T10:59:30.269Z,82.87
2018-12-09T11:00:28.347Z,83.40
2018-12-09T11:01:28.304Z,82.49
2018-12-09T11:02:28.323Z,82.54
2018-12-09T11:03:28.390Z,82.97
2018-12-09T11:04:28.356Z,82.30
2018-12-09T11:05:28.388Z,83.31
2018-12-09T11:06:28.387Z,83.31
2018-12-09T11:07:28.399Z,83.69
2018-12-09T11:08:28.413Z,83.78
2018-12-09T11:09:28.447Z,83.40
2018-12-09T11:10:28.448Z,83.02
2018-12-09T11:11:28.462Z,83.88
2018-12-09T11:12:28.477Z,83.97
2018-12-09T11:13:28.518Z,83.69
2018-12-09T11:14:28.530Z,84.26
2018-12-09T11:15:28.533Z,83.78
2018-12-09T11:16:28.556Z,83.12
2018-12-09T11:17:28.569Z,82.54
2018-12-09T11:18:28.586Z,82.26
2018-12-09T11:19:28.600Z,82.54
2018-12-09T11:20:28.613Z,83.06
2018-12-09T11:21:30.804Z,82.73
2018-12-09T11:22:28.644Z,82.83
2018-12-09T11:24:28.680Z,82.83
2018-12-09T11:25:28.685Z,82.92
2018-12-09T11:26:28.714Z,82.73
2018-12-09T11:27:28.728Z,82.45
2018-12-09T11:28:28.734Z,82.54
2018-12-09T11:29:28.759Z,82.54
2018-12-09T11:31:28.812Z,81.92
2018-12-09T11:32:28.803Z,82.35
2018-12-09T11:33:28.909Z,81.63
2018-12-09T11:34:28.838Z,81.78
2018-12-09T11:35:28.957Z,81.59
2018-12-09T11:36:28.870Z,80.87
2018-12-09T11:37:28.894Z,80.96
2018-12-09T11:38:28.918Z,80.96
2018-12-09T11:39:28.967Z,80.87
2018-12-09T11:40:28.940Z,81.06
2018-12-09T11:41:28.948Z,81.30
2018-12-09T11:42:28.960Z,80.96
2018-12-09T11:43:28.987Z,80.87
2018-12-09T11:44:29.005Z,81.35
2018-12-09T11:45:29.016Z,80.58
2018-12-09T11:46:29.028Z,81.21
2018-12-09T11:47:29.048Z,81.54
2018-12-09T11:48:29.060Z,80.83
2018-12-09T11:50:29.091Z,80.64
2018-12-09T11:51:29.109Z,81.02
2018-12-09T11:52:29.134Z,81.12
2018-12-09T11:53:29.144Z,80.92
2018-12-09T11:54:29.156Z,81.40
2018-12-09T11:55:29.173Z,81.12
2018-12-09T11:56:29.192Z,80.49
2018-12-09T11:57:29.201Z,80.54
2018-12-09T11:58:29.230Z,80.73
2018-12-09T11:59:29.236Z,81.59
2018-12-09T12:00:29.253Z,81.49
2018-12-09T12:01:29.277Z,80.83
2018-12-09T12:02:29.285Z,81.12
2018-12-09T12:03:29.314Z,81.59
2018-12-09T12:04:29.320Z,81.40
2018-12-09T12:05:29.338Z,81.40
2018-12-09T12:06:29.376Z,81.12
2018-12-09T12:07:29.377Z,81.68
2018-12-09T12:08:29.395Z,81.78
2018-12-09T12:09:29.407Z,82.17
2018-12-09T12:10:29.415Z,81.88
2018-12-09T12:11:29.434Z,82.07
2018-12-09T12:12:29.438Z,81.68
2018-12-09T12:13:29.463Z,81.88
2018-12-09T12:14:29.492Z,81.88
2018-12-09T12:15:29.495Z,81.78
2018-12-09T12:16:29.536Z,82.20
2018-12-09T12:17:29.525Z,81.44
2018-12-09T12:18:29.558Z,82.64
2018-12-09T12:19:29.568Z,82.26
2018-12-09T12:20:29.672Z,82.83
2018-12-09T12:21:29.602Z,82.92
2018-12-09T12:22:29.619Z,83.50
2018-12-09T12:23:29.624Z,84.36
2018-12-09T12:24:29.639Z,83.69
2018-12-09T12:25:29.651Z,83.50
2018-12-09T12:26:29.689Z,83.59
2018-12-09T12:27:29.689Z,84.26
2018-12-09T12:28:29.705Z,84.16
2018-12-09T12:30:29.739Z,84.16
2018-12-09T12:31:29.777Z,84.45
2018-12-09T12:32:29.762Z,84.45
2018-12-09T12:33:29.787Z,84.64
2018-12-09T12:34:29.815Z,84.92
2018-12-09T12:35:29.826Z,85.41
2018-12-09T12:36:29.838Z,86.36
2018-12-09T12:37:29.851Z,86.83
2018-12-09T12:39:29.881Z,86.16
2018-12-09T12:40:29.896Z,85.69
2018-12-09T12:41:31.862Z,85.78
2018-12-09T12:42:29.918Z,86.07
2018-12-09T12:43:29.946Z,86.83
2018-12-09T12:44:29.995Z,87.02
2018-12-09T12:45:29.983Z,86.65
2018-12-09T12:46:29.988Z,86.74
2018-12-09T12:47:30.003Z,87.31
2018-12-09T12:48:30.067Z,87.50
2018-12-09T12:49:30.043Z,86.36
2018-12-09T12:50:30.061Z,86.83
2018-12-09T12:51:30.075Z,87.12
2018-12-09T12:52:30.130Z,87.98
2018-12-09T12:53:30.130Z,88.36
2018-12-09T12:54:30.130Z,88.07
2018-12-09T12:55:30.128Z,87.79
2018-12-09T12:56:30.160Z,87.50
2018-12-09T12:57:30.166Z,87.12
2018-12-09T12:58:30.185Z,86.83
2018-12-09T12:59:30.317Z,86.36
2018-12-09T13:00:30.235Z,87.02
2018-12-09T13:01:30.237Z,87.50
2018-12-09T13:02:30.244Z,87.79
2018-12-09T13:03:30.271Z,88.26
2018-12-09T13:04:30.288Z,88.55
2018-12-09T13:05:30.298Z,88.45
2018-12-09T13:06:30.304Z,88.64
2018-12-09T13:07:30.324Z,89.03
2018-12-09T13:08:30.339Z,88.93
2018-12-09T13:09:30.353Z,89.03
2018-12-09T13:10:30.374Z,88.93
2018-12-09T13:11:30.394Z,89.89
2018-12-09T13:12:30.425Z,90.36
2018-12-09T13:13:30.424Z,90.55
2018-12-09T13:15:30.456Z,90.93
2018-12-09T13:16:30.507Z,91.41
2018-12-09T13:17:30.494Z,90.64
2018-12-09T13:18:30.542Z,91.13
2018-12-09T13:19:30.538Z,91.13
2018-12-09T13:20:30.529Z,90.93